createdAt,value
2022-10-29T00:00:52.732Z,15.40
2022-10-29T00:03:40.537Z,15.40
2022-10-29T00:06:28.536Z,15.50
2022-10-29T00:09:16.287Z,15.60
2022-10-29T00:12:04.238Z,15.70
2022-10-29T00:14:51.975Z,15.60
2022-10-29T00:17:39.900Z,15.60
2022-10-29T00:20:27.685Z,15.70
2022-10-29T00:23:15.734Z,15.80
2022-10-29T00:26:04.091Z,15.80
2022-10-29T00:28:56.155Z,15.70
2022-10-29T00:31:43.955Z,15.60
2022-10-29T00:34:31.599Z,15.50
2022-10-29T00:37:19.491Z,15.30
2022-10-29T00:40:07.784Z,15.30
2022-10-29T00:43:14.365Z,15.20
2022-10-29T00:49:27.556Z,15.10
2022-10-29T00:52:17.087Z,14.90
2022-10-29T00:55:07.751Z,14.70
2022-10-29T00:57:57.420Z,15.10
2022-10-29T01:00:46.013Z,15.10
2022-10-29T01:03:33.773Z,15.10
2022-10-29T01:06:23.766Z,15.10
2022-10-29T01:09:11.543Z,15.10
2022-10-29T01:12:34.221Z,14.90
2022-10-29T01:16:02.527Z,14.60
2022-10-29T01:19:04.078Z,14.80
2022-10-29T01:22:33.043Z,14.70
2022-10-29T01:25:38.670Z,14.70
2022-10-29T01:28:42.376Z,14.80
2022-10-29T01:31:46.411Z,14.80
2022-10-29T01:34:58.137Z,14.80
2022-10-29T01:37:51.050Z,14.70
2022-10-29T01:41:04.674Z,14.60
2022-10-29T01:44:07.301Z,14.50
2022-10-29T01:46:59.264Z,14.20
2022-10-29T01:50:01.126Z,14.00
2022-10-29T01:52:50.278Z,14.00
2022-10-29T01:55:38.022Z,14.50
2022-10-29T01:58:26.288Z,14.60
2022-10-29T02:01:51.895Z,14.70
2022-10-29T02:04:45.402Z,14.70
2022-10-29T02:07:46.277Z,14.60
2022-10-29T02:10:38.999Z,14.40
2022-10-29T02:13:33.436Z,13.90
2022-10-29T02:16:22.894Z,13.70
2022-10-29T02:19:10.430Z,13.60
2022-10-29T02:21:58.361Z,14.00
2022-10-29T02:24:46.120Z,13.90
2022-10-29T02:27:34.133Z,13.90
2022-10-29T02:30:22.016Z,14.10
2022-10-29T02:33:09.860Z,14.30
2022-10-29T02:35:57.538Z,14.20
2022-10-29T02:38:45.320Z,14.00
2022-10-29T02:41:33.164Z,13.80
2022-10-29T02:44:20.991Z,13.90
2022-10-29T02:47:08.728Z,14.20
2022-10-29T02:49:56.423Z,14.30
2022-10-29T02:52:44.138Z,14.30
2022-10-29T02:55:31.776Z,14.40
2022-10-29T02:58:19.521Z,14.30
2022-10-29T03:01:07.284Z,13.90
2022-10-29T03:03:55.138Z,13.90
2022-10-29T03:06:42.957Z,14.00
2022-10-29T03:09:30.597Z,14.10
2022-10-29T03:12:18.194Z,14.20
2022-10-29T03:15:06.400Z,14.10
2022-10-29T03:17:54.606Z,14.10
2022-10-29T03:20:43.663Z,14.00
2022-10-29T03:23:33.762Z,13.90
2022-10-29T03:26:21.567Z,13.80
2022-10-29T03:29:09.432Z,13.90
2022-10-29T03:31:57.375Z,13.80
2022-10-29T03:34:45.109Z,13.40
2022-10-29T03:37:32.816Z,13.20
2022-10-29T03:40:20.576Z,13.30
2022-10-29T03:43:08.125Z,13.50
2022-10-29T03:45:57.479Z,13.50
2022-10-29T03:48:45.426Z,13.40
2022-10-29T03:51:33.146Z,13.40
2022-10-29T03:54:20.799Z,13.40
2022-10-29T03:57:08.728Z,13.50
2022-10-29T03:59:56.585Z,13.60
2022-10-29T04:02:44.460Z,13.50
2022-10-29T04:05:32.223Z,13.20
2022-10-29T04:08:21.302Z,13.50
2022-10-29T04:11:15.153Z,13.50
2022-10-29T04:14:02.788Z,13.60
2022-10-29T04:16:50.523Z,13.50
2022-10-29T04:19:38.175Z,13.30
2022-10-29T04:28:43.299Z,13.40
2022-10-29T04:31:31.506Z,13.40
2022-10-29T04:34:19.387Z,13.10
2022-10-29T04:37:09.160Z,13.30
2022-10-29T04:39:56.774Z,13.30
2022-10-29T04:42:44.366Z,13.40
2022-10-29T04:45:32.142Z,13.70
2022-10-29T04:48:20.637Z,13.80
2022-10-29T04:51:17.017Z,13.70
2022-10-29T04:54:04.811Z,13.70
2022-10-29T04:56:52.482Z,13.50
2022-10-29T04:59:40.072Z,13.20
2022-10-29T05:02:27.666Z,13.40
2022-10-29T05:05:16.219Z,13.60
2022-10-29T05:08:08.252Z,13.70
2022-10-29T05:10:56.222Z,13.80
2022-10-29T05:13:47.344Z,13.50
2022-10-29T05:16:35.034Z,13.10
2022-10-29T05:19:22.829Z,13.30
2022-10-29T05:22:10.631Z,13.40
2022-10-29T05:24:58.276Z,13.70
2022-10-29T05:27:45.858Z,13.70
2022-10-29T05:30:37.056Z,13.80
2022-10-29T05:33:29.677Z,13.70
2022-10-29T05:36:20.207Z,13.80
2022-10-29T05:39:10.695Z,13.90
2022-10-29T05:42:01.088Z,14.00
2022-10-29T05:44:48.930Z,14.20
2022-10-29T05:47:41.687Z,14.30
2022-10-29T05:50:30.290Z,14.40
2022-10-29T15:04:15.813Z,21.60
2022-10-29T15:12:58.065Z,21.30
2022-10-29T16:41:52.189Z,17.80
2022-10-29T16:48:20.859Z,17.70
2022-10-29T16:51:09.269Z,17.40
2022-10-29T16:53:57.604Z,17.10
2022-10-29T16:56:46.548Z,17.00
2022-10-29T16:59:34.641Z,16.90
2022-10-29T17:02:22.981Z,16.70
2022-10-29T17:05:15.402Z,16.60
2022-10-29T17:08:04.427Z,16.70
2022-10-29T17:11:04.262Z,16.60
2022-10-29T17:13:52.691Z,16.50
2022-10-29T17:16:41.150Z,16.50
2022-10-29T17:19:30.335Z,16.40
2022-10-29T17:22:18.708Z,16.60
2022-10-29T17:25:07.689Z,16.70
2022-10-29T17:27:56.298Z,16.80
2022-10-29T17:30:44.639Z,16.60
2022-10-29T17:33:33.099Z,16.70
2022-10-29T17:36:21.429Z,16.70
2022-10-29T17:39:10.332Z,16.80
2022-10-29T17:41:58.751Z,16.70
2022-10-29T17:44:54.474Z,16.70
2022-10-29T17:47:42.703Z,16.70
2022-10-29T17:50:30.953Z,16.50
2022-10-29T17:53:27.432Z,16.40
2022-10-29T17:56:15.516Z,16.20
2022-10-29T17:59:06.047Z,16.30
2022-10-29T18:01:56.296Z,16.20
2022-10-29T18:04:46.532Z,16.10
2022-10-29T18:07:34.951Z,16.10
2022-10-29T18:10:23.341Z,16.20
2022-10-29T18:13:11.473Z,16.20
2022-10-29T18:16:01.712Z,16.20
2022-10-29T18:19:01.927Z,16.20
2022-10-29T18:21:51.280Z,16.30
2022-10-29T18:24:39.537Z,16.30
2022-10-29T18:27:28.079Z,15.90
2022-10-29T18:30:16.440Z,15.90
2022-10-29T18:33:07.257Z,15.80
2022-10-29T18:35:57.061Z,15.80
2022-10-29T18:38:51.157Z,16.00
2022-10-29T18:41:42.183Z,16.00
2022-10-29T18:44:31.957Z,15.90
2022-10-29T18:47:20.050Z,15.80
2022-10-29T18:50:08.601Z,15.60
2022-10-29T18:53:00.120Z,15.30
2022-10-29T18:55:52.401Z,15.30
2022-10-29T18:58:40.699Z,15.10
2022-10-29T19:01:34.116Z,15.30
2022-10-29T19:04:22.373Z,15.30
2022-10-29T19:07:10.579Z,15.40
2022-10-29T19:09:58.728Z,15.40
2022-10-29T19:12:46.841Z,15.40
2022-10-29T19:15:39.472Z,15.20
2022-10-29T19:18:27.867Z,15.20
2022-10-29T19:21:18.604Z,15.10
2022-10-29T19:24:08.130Z,15.10
2022-10-29T19:26:56.265Z,15.10
2022-10-29T19:29:44.401Z,15.10
2022-10-29T19:32:32.760Z,15.10
2022-10-29T19:35:21.087Z,15.00
2022-10-29T19:38:09.349Z,14.90
2022-10-29T19:40:57.596Z,14.90
2022-10-29T19:43:48.306Z,15.10
2022-10-29T19:46:36.535Z,15.10
2022-10-29T19:49:27.404Z,15.10
2022-10-29T19:52:18.093Z,15.20
2022-10-29T19:55:07.218Z,15.20
2022-10-29T19:57:58.072Z,15.20
2022-10-29T20:00:47.120Z,15.40
2022-10-29T20:03:36.449Z,15.30
2022-10-29T20:06:26.953Z,15.40
2022-10-29T20:09:15.282Z,15.50
2022-10-29T20:12:03.334Z,15.40
2022-10-29T20:14:51.582Z,15.40
2022-10-29T20:17:39.993Z,15.20
2022-10-29T20:20:28.490Z,15.20
2022-10-29T20:23:19.070Z,15.10
2022-10-29T20:26:08.117Z,14.80
2022-10-29T20:28:59.312Z,14.70
2022-10-29T20:31:47.767Z,14.50
2022-10-29T20:34:36.193Z,14.60
2022-10-29T20:37:24.926Z,14.80
2022-10-29T20:40:13.528Z,14.90
2022-10-29T20:43:01.832Z,14.80
2022-10-29T20:45:49.910Z,14.70
2022-10-29T20:48:37.846Z,14.80
2022-10-29T20:51:27.157Z,14.80
2022-10-29T20:54:15.130Z,14.80
2022-10-29T20:57:03.366Z,15.00
2022-10-29T20:59:51.324Z,15.10
2022-10-29T21:02:39.770Z,15.20
2022-10-29T21:05:27.893Z,15.30
2022-10-29T21:08:16.024Z,15.20
2022-10-29T21:11:10.816Z,15.10
2022-10-29T21:13:59.240Z,15.10
2022-10-29T21:16:47.349Z,15.20
2022-10-29T21:19:35.563Z,15.30
2022-10-29T21:22:24.001Z,15.20
2022-10-29T21:25:15.151Z,15.20
2022-10-29T21:28:03.550Z,15.10
2022-10-29T21:30:51.781Z,14.90
2022-10-29T21:33:40.329Z,14.90
2022-10-29T21:36:28.541Z,14.70
2022-10-29T21:39:16.772Z,14.70
2022-10-29T21:42:04.972Z,14.60
2022-10-29T21:44:52.923Z,14.60
2022-10-29T21:47:40.785Z,14.60
2022-10-29T21:50:28.894Z,14.70
2022-10-29T21:53:16.876Z,15.00
2022-10-29T21:56:08.368Z,15.00
2022-10-29T21:58:56.408Z,15.10
2022-10-29T22:01:44.535Z,15.00
2022-10-29T22:04:32.955Z,14.90
2022-10-29T22:07:21.125Z,15.00
2022-10-29T22:10:09.768Z,14.80
2022-10-29T22:12:58.317Z,14.80
2022-10-29T22:15:46.534Z,14.60
2022-10-29T22:18:35.532Z,14.50
2022-10-29T22:21:26.054Z,14.40
2022-10-29T22:24:14.163Z,14.30
2022-10-29T22:27:02.292Z,14.40
2022-10-29T22:29:53.573Z,14.50
2022-10-29T22:32:42.520Z,14.80
2022-10-29T22:35:30.543Z,15.00
2022-10-29T22:38:18.611Z,15.10
2022-10-29T22:41:12.280Z,15.00
2022-10-29T22:44:01.177Z,15.00
2022-10-29T22:46:49.156Z,15.00
2022-10-29T22:49:37.249Z,15.30
2022-10-29T22:52:25.744Z,15.40
2022-10-29T22:55:14.122Z,15.50
2022-10-29T22:58:02.133Z,15.50
2022-10-29T23:00:50.308Z,15.40
2022-10-29T23:03:40.450Z,15.50
2022-10-29T23:06:34.189Z,15.60
2022-10-29T23:09:22.138Z,15.60
2022-10-29T23:12:10.149Z,15.70
2022-10-29T23:14:58.072Z,15.70
2022-10-29T23:17:46.213Z,15.30
2022-10-29T23:20:34.243Z,15.20
2022-10-29T23:23:22.340Z,15.00
2022-10-29T23:26:11.611Z,15.00
2022-10-29T23:28:59.593Z,14.90
2022-10-29T23:31:47.558Z,14.70
2022-10-29T23:34:36.034Z,14.60
2022-10-29T23:37:24.242Z,14.50
2022-10-29T23:40:12.621Z,14.60
2022-10-29T23:43:00.543Z,14.70
2022-10-29T23:45:48.870Z,14.80
2022-10-29T23:48:36.879Z,14.80
2022-10-29T23:51:25.253Z,14.70
2022-10-29T23:54:13.368Z,14.70
2022-10-29T23:57:01.541Z,14.80
2022-10-29T23:59:49.405Z,14.80
